sensor_id;sensor_type;location;lat;lon;timestamp;noise_LAeq;noise_LA_min;noise_LA_max;noise_LA01;noise_LA95
66399;Laerm;54877;51.504;3.894;2024-01-30T00:01:12;36.74;34.97;41.12;;
66399;Laerm;54877;51.504;3.894;2024-01-30T00:03:38;36.33;34.92;40.59;;
66399;Laerm;54877;51.504;3.894;2024-01-30T00:06:03;36.33;35.01;39.25;;
66399;Laerm;54877;51.504;3.894;2024-01-30T00:08:29;36.90;34.86;50.38;;
66399;Laerm;54877;51.504;3.894;2024-01-30T00:10:54;36.41;34.83;46.10;;
66399;Laerm;54877;51.504;3.894;2024-01-30T00:13:19;36.44;34.85;48.25;;
66399;Laerm;54877;51.504;3.894;2024-01-30T00:15:45;36.33;34.65;38.90;;
66399;Laerm;54877;51.504;3.894;2024-01-30T00:18:10;36.27;34.65;38.62;;
66399;Laerm;54877;51.504;3.894;2024-01-30T00:20:36;36.18;34.79;37.59;;
66399;Laerm;54877;51.504;3.894;2024-01-30T00:23:01;36.22;34.64;38.69;;
66399;Laerm;54877;51.504;3.894;2024-01-30T00:25:26;36.21;34.64;39.05;;
66399;Laerm;54877;51.504;3.894;2024-01-30T00:27:52;36.23;34.67;45.46;;
66399;Laerm;54877;51.504;3.894;2024-01-30T00:30:17;36.46;34.76;43.13;;
66399;Laerm;54877;51.504;3.894;2024-01-30T00:32:43;36.08;34.53;37.49;;
66399;Laerm;54877;51.504;3.894;2024-01-30T00:35:08;36.16;34.45;38.76;;
66399;Laerm;54877;51.504;3.894;2024-01-30T00:37:35;36.15;34.80;39.83;;
66399;Laerm;54877;51.504;3.894;2024-01-30T00:40:00;36.12;34.80;37.45;;
66399;Laerm;54877;51.504;3.894;2024-01-30T00:42:26;36.06;34.72;37.30;;
66399;Laerm;54877;51.504;3.894;2024-01-30T00:44:51;36.05;34.74;37.38;;
66399;Laerm;54877;51.504;3.894;2024-01-30T00:47:16;36.09;34.86;37.40;;
66399;Laerm;54877;51.504;3.894;2024-01-30T00:49:42;36.50;34.61;53.01;;
66399;Laerm;54877;51.504;3.894;2024-01-30T00:52:07;36.19;34.85;41.76;;
66399;Laerm;54877;51.504;3.894;2024-01-30T00:54:33;36.20;34.63;38.87;;
66399;Laerm;54877;51.504;3.894;2024-01-30T00:56:58;36.23;34.79;38.76;;
66399;Laerm;54877;51.504;3.894;2024-01-30T00:59:23;36.21;34.77;44.57;;
66399;Laerm;54877;51.504;3.894;2024-01-30T01:01:49;36.29;34.75;39.67;;
66399;Laerm;54877;51.504;3.894;2024-01-30T01:04:14;36.17;34.63;39.94;;
66399;Laerm;54877;51.504;3.894;2024-01-30T01:06:39;36.41;34.66;54.35;;
66399;Laerm;54877;51.504;3.894;2024-01-30T01:09:07;36.28;34.80;38.70;;
66399;Laerm;54877;51.504;3.894;2024-01-30T01:11:33;36.27;34.82;41.13;;
66399;Laerm;54877;51.504;3.894;2024-01-30T01:13:58;36.20;34.83;38.26;;
66399;Laerm;54877;51.504;3.894;2024-01-30T01:16:23;36.36;34.93;39.13;;
66399;Laerm;54877;51.504;3.894;2024-01-30T01:18:49;36.43;34.74;55.47;;
66399;Laerm;54877;51.504;3.894;2024-01-30T01:21:14;36.21;34.67;37.61;;
66399;Laerm;54877;51.504;3.894;2024-01-30T01:23:39;44.19;35.06;61.56;;
66399;Laerm;54877;51.504;3.894;2024-01-30T01:26:04;36.43;34.95;38.88;;
66399;Laerm;54877;51.504;3.894;2024-01-30T01:28:30;36.29;34.76;38.40;;
66399;Laerm;54877;51.504;3.894;2024-01-30T01:30:56;36.33;34.93;40.61;;
66399;Laerm;54877;51.504;3.894;2024-01-30T01:33:24;36.19;34.93;37.34;;
66399;Laerm;54877;51.504;3.894;2024-01-30T01:35:49;36.21;34.90;37.50;;
66399;Laerm;54877;51.504;3.894;2024-01-30T01:38:15;36.22;34.83;37.87;;
66399;Laerm;54877;51.504;3.894;2024-01-30T01:40:40;36.28;34.80;38.40;;
66399;Laerm;54877;51.504;3.894;2024-01-30T01:43:06;36.30;34.71;46.96;;
66399;Laerm;54877;51.504;3.894;2024-01-30T01:45:31;36.27;34.87;37.77;;
66399;Laerm;54877;51.504;3.894;2024-01-30T01:47:57;36.38;34.77;39.49;;
66399;Laerm;54877;51.504;3.894;2024-01-30T01:50:22;36.26;34.89;37.95;;
66399;Laerm;54877;51.504;3.894;2024-01-30T01:52:48;36.47;35.02;46.89;;
66399;Laerm;54877;51.504;3.894;2024-01-30T01:55:15;36.35;35.05;38.17;;
66399;Laerm;54877;51.504;3.894;2024-01-30T01:57:41;36.25;34.93;37.37;;
66399;Laerm;54877;51.504;3.894;2024-01-30T02:00:08;36.32;35.06;39.14;;
66399;Laerm;54877;51.504;3.894;2024-01-30T02:02:35;36.27;34.86;37.87;;
66399;Laerm;54877;51.504;3.894;2024-01-30T02:05:01;36.25;35.07;37.61;;
66399;Laerm;54877;51.504;3.894;2024-01-30T02:07:27;36.30;34.73;37.65;;
66399;Laerm;54877;51.504;3.894;2024-01-30T02:09:53;36.28;34.73;37.69;;
66399;Laerm;54877;51.504;3.894;2024-01-30T02:12:19;36.27;34.94;37.81;;
66399;Laerm;54877;51.504;3.894;2024-01-30T02:14:48;36.37;34.95;39.09;;
66399;Laerm;54877;51.504;3.894;2024-01-30T02:17:15;36.45;35.10;38.43;;
66399;Laerm;54877;51.504;3.894;2024-01-30T02:19:40;36.39;34.97;40.85;;
66399;Laerm;54877;51.504;3.894;2024-01-30T02:22:07;36.29;34.97;39.38;;
66399;Laerm;54877;51.504;3.894;2024-01-30T02:24:32;36.33;35.02;37.74;;
66399;Laerm;54877;51.504;3.894;2024-01-30T02:26:58;36.31;34.80;37.59;;
66399;Laerm;54877;51.504;3.894;2024-01-30T02:29:23;36.28;34.99;37.61;;
66399;Laerm;54877;51.504;3.894;2024-01-30T02:31:48;36.40;35.10;40.34;;
66399;Laerm;54877;51.504;3.894;2024-01-30T02:34:14;36.29;34.84;37.68;;
66399;Laerm;54877;51.504;3.894;2024-01-30T02:36:42;36.32;35.03;37.72;;
66399;Laerm;54877;51.504;3.894;2024-01-30T02:39:09;36.29;34.86;37.62;;
66399;Laerm;54877;51.504;3.894;2024-01-30T02:41:35;36.30;34.65;37.64;;
66399;Laerm;54877;51.504;3.894;2024-01-30T02:44:00;36.27;34.81;37.57;;
66399;Laerm;54877;51.504;3.894;2024-01-30T02:46:25;36.25;34.70;37.52;;
66399;Laerm;54877;51.504;3.894;2024-01-30T02:48:51;36.29;34.91;37.52;;
66399;Laerm;54877;51.504;3.894;2024-01-30T02:51:16;36.38;35.00;37.78;;
66399;Laerm;54877;51.504;3.894;2024-01-30T02:53:42;36.29;34.98;37.98;;
66399;Laerm;54877;51.504;3.894;2024-01-30T02:56:07;36.40;34.97;39.73;;
66399;Laerm;54877;51.504;3.894;2024-01-30T02:58:35;36.37;34.88;38.18;;
66399;Laerm;54877;51.504;3.894;2024-01-30T03:01:01;36.31;34.84;38.77;;
66399;Laerm;54877;51.504;3.894;2024-01-30T03:03:26;36.29;34.83;37.76;;
66399;Laerm;54877;51.504;3.894;2024-01-30T03:05:51;36.35;34.86;38.27;;
66399;Laerm;54877;51.504;3.894;2024-01-30T03:08:16;36.34;34.92;38.04;;
66399;Laerm;54877;51.504;3.894;2024-01-30T03:10:42;36.37;34.95;37.90;;
66399;Laerm;54877;51.504;3.894;2024-01-30T03:13:07;36.39;34.93;38.48;;
66399;Laerm;54877;51.504;3.894;2024-01-30T03:15:32;36.36;34.93;37.76;;
66399;Laerm;54877;51.504;3.894;2024-01-30T03:17:58;36.33;34.73;37.87;;
66399;Laerm;54877;51.504;3.894;2024-01-30T03:20:23;36.39;34.91;38.15;;
66399;Laerm;54877;51.504;3.894;2024-01-30T03:22:49;36.41;35.05;40.72;;
66399;Laerm;54877;51.504;3.894;2024-01-30T03:25:14;36.47;35.08;39.49;;
66399;Laerm;54877;51.504;3.894;2024-01-30T03:27:40;36.61;35.15;41.56;;
66399;Laerm;54877;51.504;3.894;2024-01-30T03:30:06;36.53;34.99;38.54;;
66399;Laerm;54877;51.504;3.894;2024-01-30T03:32:31;36.45;35.00;38.00;;
66399;Laerm;54877;51.504;3.894;2024-01-30T03:34:56;36.48;35.03;39.91;;
66399;Laerm;54877;51.504;3.894;2024-01-30T03:37:23;36.44;35.15;39.67;;
66399;Laerm;54877;51.504;3.894;2024-01-30T03:39:48;36.36;34.88;37.71;;
66399;Laerm;54877;51.504;3.894;2024-01-30T03:42:13;36.41;34.92;37.94;;
66399;Laerm;54877;51.504;3.894;2024-01-30T03:44:39;36.86;34.98;40.45;;
66399;Laerm;54877;51.504;3.894;2024-01-30T03:47:04;36.48;35.02;41.17;;
66399;Laerm;54877;51.504;3.894;2024-01-30T03:49:29;36.64;35.11;44.33;;
66399;Laerm;54877;51.504;3.894;2024-01-30T03:51:55;36.57;34.64;40.31;;
66399;Laerm;54877;51.504;3.894;2024-01-30T03:54:20;36.43;35.18;37.78;;
66399;Laerm;54877;51.504;3.894;2024-01-30T03:56:45;36.40;34.99;37.97;;
66399;Laerm;54877;51.504;3.894;2024-01-30T03:59:11;37.11;35.05;41.82;;
66399;Laerm;54877;51.504;3.894;2024-01-30T04:01:36;36.54;34.98;38.49;;
66399;Laerm;54877;51.504;3.894;2024-01-30T04:04:01;36.55;35.09;37.87;;
66399;Laerm;54877;51.504;3.894;2024-01-30T04:06:26;36.97;35.29;52.81;;
66399;Laerm;54877;51.504;3.894;2024-01-30T04:08:52;36.40;34.85;37.78;;
66399;Laerm;54877;51.504;3.894;2024-01-30T04:11:20;36.49;35.14;37.75;;
66399;Laerm;54877;51.504;3.894;2024-01-30T04:13:45;36.58;34.81;38.95;;
66399;Laerm;54877;51.504;3.894;2024-01-30T04:16:22;36.51;35.06;38.02;;
66399;Laerm;54877;51.504;3.894;2024-01-30T04:18:48;36.54;35.06;38.87;;
66399;Laerm;54877;51.504;3.894;2024-01-30T04:21:13;36.64;35.32;38.19;;
66399;Laerm;54877;51.504;3.894;2024-01-30T04:23:40;36.67;34.96;38.57;;
66399;Laerm;54877;51.504;3.894;2024-01-30T04:26:06;43.08;35.31;61.06;;
66399;Laerm;54877;51.504;3.894;2024-01-30T04:28:31;36.66;35.27;38.14;;
66399;Laerm;54877;51.504;3.894;2024-01-30T04:30:56;36.64;35.33;38.83;;
66399;Laerm;54877;51.504;3.894;2024-01-30T04:33:22;36.76;35.25;38.13;;
66399;Laerm;54877;51.504;3.894;2024-01-30T04:35:47;36.59;34.91;37.98;;
66399;Laerm;54877;51.504;3.894;2024-01-30T04:38:12;47.03;35.43;66.09;;
66399;Laerm;54877;51.504;3.894;2024-01-30T04:40:39;36.94;35.14;45.27;;
66399;Laerm;54877;51.504;3.894;2024-01-30T04:43:04;45.07;35.51;65.00;;
66399;Laerm;54877;51.504;3.894;2024-01-30T04:45:30;36.82;35.33;45.09;;
66399;Laerm;54877;51.504;3.894;2024-01-30T04:47:55;36.77;35.21;38.27;;
66399;Laerm;54877;51.504;3.894;2024-01-30T04:50:20;36.75;35.40;38.14;;
66399;Laerm;54877;51.504;3.894;2024-01-30T04:52:46;36.77;35.14;38.24;;
66399;Laerm;54877;51.504;3.894;2024-01-30T04:55:11;36.82;35.30;38.47;;
66399;Laerm;54877;51.504;3.894;2024-01-30T04:57:36;37.61;35.37;57.13;;
66399;Laerm;54877;51.504;3.894;2024-01-30T05:00:02;37.17;35.49;52.67;;
66399;Laerm;54877;51.504;3.894;2024-01-30T05:02:28;36.77;35.37;38.20;;
66399;Laerm;54877;51.504;3.894;2024-01-30T05:04:53;36.83;35.42;38.77;;
66399;Laerm;54877;51.504;3.894;2024-01-30T05:07:19;36.84;35.46;40.30;;
66399;Laerm;54877;51.504;3.894;2024-01-30T05:09:44;37.10;35.45;44.33;;
66399;Laerm;54877;51.504;3.894;2024-01-30T05:12:09;47.59;35.34;65.13;;
66399;Laerm;54877;51.504;3.894;2024-01-30T05:14:35;37.10;35.28;42.09;;
66399;Laerm;54877;51.504;3.894;2024-01-30T05:17:00;37.39;35.32;57.99;;
66399;Laerm;54877;51.504;3.894;2024-01-30T05:19:25;37.11;35.71;38.81;;
66399;Laerm;54877;51.504;3.894;2024-01-30T05:21:51;36.98;35.44;38.85;;
66399;Laerm;54877;51.504;3.894;2024-01-30T05:24:16;37.04;35.52;39.37;;
66399;Laerm;54877;51.504;3.894;2024-01-30T05:26:41;37.27;35.44;40.95;;
66399;Laerm;54877;51.504;3.894;2024-01-30T05:29:07;37.45;35.07;48.10;;
66399;Laerm;54877;51.504;3.894;2024-01-30T05:31:36;37.23;35.41;40.27;;
66399;Laerm;54877;51.504;3.894;2024-01-30T05:34:01;37.32;35.69;46.26;;
66399;Laerm;54877;51.504;3.894;2024-01-30T05:36:27;49.32;35.64;65.41;;
66399;Laerm;54877;51.504;3.894;2024-01-30T05:38:52;37.39;35.92;40.49;;
66399;Laerm;54877;51.504;3.894;2024-01-30T05:41:18;37.16;35.47;39.89;;
66399;Laerm;54877;51.504;3.894;2024-01-30T05:43:43;46.18;35.77;65.09;;
66399;Laerm;54877;51.504;3.894;2024-01-30T05:46:08;38.15;35.78;46.14;;
66399;Laerm;54877;51.504;3.894;2024-01-30T05:48:34;37.27;35.71;41.36;;
66399;Laerm;54877;51.504;3.894;2024-01-30T05:51:01;37.61;35.83;43.10;;
66399;Laerm;54877;51.504;3.894;2024-01-30T05:53:27;37.45;35.21;40.97;;
66399;Laerm;54877;51.504;3.894;2024-01-30T05:55:52;39.37;35.27;66.82;;
66399;Laerm;54877;51.504;3.894;2024-01-30T05:58:17;51.28;35.78;72.18;;
66399;Laerm;54877;51.504;3.894;2024-01-30T06:00:43;38.96;35.90;54.96;;
66399;Laerm;54877;51.504;3.894;2024-01-30T06:03:08;37.72;35.86;43.43;;
66399;Laerm;54877;51.504;3.894;2024-01-30T06:05:33;43.47;35.89;61.88;;
66399;Laerm;54877;51.504;3.894;2024-01-30T06:07:59;38.17;35.66;57.52;;
66399;Laerm;54877;51.504;3.894;2024-01-30T06:10:24;37.47;35.36;42.61;;
66399;Laerm;54877;51.504;3.894;2024-01-30T06:12:49;47.44;36.03;67.01;;
66399;Laerm;54877;51.504;3.894;2024-01-30T06:15:14;50.11;35.71;66.47;;
66399;Laerm;54877;51.504;3.894;2024-01-30T06:17:40;39.65;35.61;62.12;;
66399;Laerm;54877;51.504;3.894;2024-01-30T06:20:07;46.20;36.26;61.19;;
66399;Laerm;54877;51.504;3.894;2024-01-30T06:22:32;49.11;36.33;64.57;;
66399;Laerm;54877;51.504;3.894;2024-01-30T06:24:58;37.75;36.05;48.71;;
66399;Laerm;54877;51.504;3.894;2024-01-30T06:27:23;38.14;36.01;45.44;;
66399;Laerm;54877;51.504;3.894;2024-01-30T06:29:51;44.65;36.40;64.15;;
66399;Laerm;54877;51.504;3.894;2024-01-30T06:32:17;45.75;36.04;64.22;;
66399;Laerm;54877;51.504;3.894;2024-01-30T06:34:42;49.08;36.56;69.88;;
66399;Laerm;54877;51.504;3.894;2024-01-30T06:37:09;40.88;36.50;55.63;;
66399;Laerm;54877;51.504;3.894;2024-01-30T06:39:34;48.08;36.79;64.45;;
66399;Laerm;54877;51.504;3.894;2024-01-30T06:42:00;46.98;36.89;64.22;;
66399;Laerm;54877;51.504;3.894;2024-01-30T06:44:25;39.71;36.41;48.32;;
66399;Laerm;54877;51.504;3.894;2024-01-30T06:46:50;46.96;36.43;65.84;;
66399;Laerm;54877;51.504;3.894;2024-01-30T06:49:16;39.49;36.51;49.47;;
66399;Laerm;54877;51.504;3.894;2024-01-30T06:51:41;47.17;36.47;63.66;;
66399;Laerm;54877;51.504;3.894;2024-01-30T06:54:06;42.59;36.55;61.72;;
66399;Laerm;54877;51.504;3.894;2024-01-30T06:56:31;44.97;37.05;67.92;;
66399;Laerm;54877;51.504;3.894;2024-01-30T06:58:57;39.62;36.53;52.35;;
66399;Laerm;54877;51.504;3.894;2024-01-30T07:01:28;40.63;36.89;51.46;;
66399;Laerm;54877;51.504;3.894;2024-01-30T07:03:54;44.78;36.71;59.79;;
66399;Laerm;54877;51.504;3.894;2024-01-30T07:06:20;47.71;36.69;67.49;;
66399;Laerm;54877;51.504;3.894;2024-01-30T07:08:45;43.51;36.80;71.13;;
66399;Laerm;54877;51.504;3.894;2024-01-30T07:11:20;39.27;36.72;48.94;;
66399;Laerm;54877;51.504;3.894;2024-01-30T07:13:50;48.32;37.02;65.56;;
66399;Laerm;54877;51.504;3.894;2024-01-30T07:16:16;41.07;36.80;61.74;;
66399;Laerm;54877;51.504;3.894;2024-01-30T07:18:41;49.09;37.26;64.31;;
66399;Laerm;54877;51.504;3.894;2024-01-30T07:21:07;48.80;37.75;68.22;;
66399;Laerm;54877;51.504;3.894;2024-01-30T07:23:32;45.34;36.58;62.16;;
66399;Laerm;54877;51.504;3.894;2024-01-30T07:26:00;44.72;37.13;61.44;;
66399;Laerm;54877;51.504;3.894;2024-01-30T07:28:26;48.11;36.96;64.89;;
66399;Laerm;54877;51.504;3.894;2024-01-30T07:30:51;39.91;36.32;55.54;;
66399;Laerm;54877;51.504;3.894;2024-01-30T07:33:16;41.09;36.58;61.80;;
66399;Laerm;54877;51.504;3.894;2024-01-30T07:35:42;49.61;36.49;64.22;;
66399;Laerm;54877;51.504;3.894;2024-01-30T07:38:07;47.58;36.29;63.93;;
66399;Laerm;54877;51.504;3.894;2024-01-30T07:40:32;38.63;36.11;50.58;;
66399;Laerm;54877;51.504;3.894;2024-01-30T07:42:58;52.80;36.51;72.71;;
66399;Laerm;54877;51.504;3.894;2024-01-30T07:45:23;40.94;36.37;62.47;;
66399;Laerm;54877;51.504;3.894;2024-01-30T07:47:51;48.01;36.41;63.87;;
66399;Laerm;54877;51.504;3.894;2024-01-30T07:50:17;47.23;36.24;66.54;;
66399;Laerm;54877;51.504;3.894;2024-01-30T07:52:45;39.23;36.33;56.04;;
66399;Laerm;54877;51.504;3.894;2024-01-30T07:55:10;52.42;36.80;67.74;;
66399;Laerm;54877;51.504;3.894;2024-01-30T07:57:38;39.67;36.67;55.64;;
66399;Laerm;54877;51.504;3.894;2024-01-30T08:00:05;39.67;35.73;54.44;;
66399;Laerm;54877;51.504;3.894;2024-01-30T08:02:33;38.39;36.18;59.56;;
66399;Laerm;54877;51.504;3.894;2024-01-30T08:04:58;44.75;36.69;61.60;;
66399;Laerm;54877;51.504;3.894;2024-01-30T08:07:24;45.31;36.00;66.17;;
66399;Laerm;54877;51.504;3.894;2024-01-30T08:09:49;42.82;35.88;58.94;;
66399;Laerm;54877;51.504;3.894;2024-01-30T08:12:15;39.87;36.01;60.96;;
66399;Laerm;54877;51.504;3.894;2024-01-30T08:14:40;39.70;36.01;60.38;;
66399;Laerm;54877;51.504;3.894;2024-01-30T08:17:06;48.00;36.89;63.19;;
66399;Laerm;54877;51.504;3.894;2024-01-30T08:19:32;42.26;37.42;55.04;;
66399;Laerm;54877;51.504;3.894;2024-01-30T08:21:58;46.28;37.14;65.20;;
66399;Laerm;54877;51.504;3.894;2024-01-30T08:24:23;45.89;35.99;63.48;;
66399;Laerm;54877;51.504;3.894;2024-01-30T08:26:48;45.04;35.86;62.69;;
66399;Laerm;54877;51.504;3.894;2024-01-30T08:29:14;38.13;35.90;49.12;;
66399;Laerm;54877;51.504;3.894;2024-01-30T08:31:39;42.62;35.63;57.25;;
66399;Laerm;54877;51.504;3.894;2024-01-30T08:34:05;41.97;35.71;58.64;;
66399;Laerm;54877;51.504;3.894;2024-01-30T08:36:30;38.12;35.99;46.94;;
66399;Laerm;54877;51.504;3.894;2024-01-30T08:38:55;44.42;36.09;60.93;;
66399;Laerm;54877;51.504;3.894;2024-01-30T08:41:21;49.12;36.35;64.92;;
66399;Laerm;54877;51.504;3.894;2024-01-30T08:43:46;49.44;36.63;69.31;;
66399;Laerm;54877;51.504;3.894;2024-01-30T08:46:11;40.68;36.23;65.62;;
66399;Laerm;54877;51.504;3.894;2024-01-30T08:48:37;45.56;35.56;65.33;;
66399;Laerm;54877;51.504;3.894;2024-01-30T08:51:02;39.19;35.76;60.06;;
66399;Laerm;54877;51.504;3.894;2024-01-30T08:53:29;44.02;35.32;60.31;;
66399;Laerm;54877;51.504;3.894;2024-01-30T08:55:54;39.12;35.86;56.20;;
66399;Laerm;54877;51.504;3.894;2024-01-30T08:58:19;40.76;35.58;60.71;;
66399;Laerm;54877;51.504;3.894;2024-01-30T09:00:45;37.73;35.98;42.34;;
66399;Laerm;54877;51.504;3.894;2024-01-30T09:03:10;39.56;36.04;56.87;;
66399;Laerm;54877;51.504;3.894;2024-01-30T09:05:35;40.08;35.91;58.52;;
66399;Laerm;54877;51.504;3.894;2024-01-30T09:08:01;42.36;35.61;58.75;;
66399;Laerm;54877;51.504;3.894;2024-01-30T09:10:26;38.90;35.86;51.96;;
66399;Laerm;54877;51.504;3.894;2024-01-30T09:12:52;39.64;35.70;60.73;;
66399;Laerm;54877;51.504;3.894;2024-01-30T09:15:17;40.43;36.25;53.27;;
66399;Laerm;54877;51.504;3.894;2024-01-30T09:17:44;45.73;36.34;66.06;;
66399;Laerm;54877;51.504;3.894;2024-01-30T09:20:09;39.21;35.68;54.56;;
66399;Laerm;54877;51.504;3.894;2024-01-30T09:22:35;47.78;35.54;66.92;;
66399;Laerm;54877;51.504;3.894;2024-01-30T09:25:00;37.54;35.90;44.49;;
66399;Laerm;54877;51.504;3.894;2024-01-30T09:27:25;40.31;36.26;60.76;;
66399;Laerm;54877;51.504;3.894;2024-01-30T09:29:51;56.15;36.33;73.80;;
66399;Laerm;54877;51.504;3.894;2024-01-30T09:32:16;63.34;36.93;77.89;;
66399;Laerm;54877;51.504;3.894;2024-01-30T09:34:42;38.51;36.10;45.23;;
66399;Laerm;54877;51.504;3.894;2024-01-30T09:37:08;39.50;36.08;54.73;;
66399;Laerm;54877;51.504;3.894;2024-01-30T09:39:33;42.03;36.22;61.27;;
66399;Laerm;54877;51.504;3.894;2024-01-30T09:44:37;41.21;35.86;59.67;;
66399;Laerm;54877;51.504;3.894;2024-01-30T09:47:03;52.46;37.16;68.29;;
66399;Laerm;54877;51.504;3.894;2024-01-30T09:49:34;49.15;36.56;69.14;;
66399;Laerm;54877;51.504;3.894;2024-01-30T09:52:00;45.88;36.12;64.79;;
66399;Laerm;54877;51.504;3.894;2024-01-30T09:54:25;43.41;36.30;70.56;;
66399;Laerm;54877;51.504;3.894;2024-01-30T09:56:51;41.23;35.97;64.62;;
66399;Laerm;54877;51.504;3.894;2024-01-30T09:59:16;45.62;36.11;63.12;;
66399;Laerm;54877;51.504;3.894;2024-01-30T10:01:42;40.54;36.63;56.69;;
66399;Laerm;54877;51.504;3.894;2024-01-30T10:04:08;40.92;36.58;57.41;;
66399;Laerm;54877;51.504;3.894;2024-01-30T10:06:34;41.96;36.53;59.33;;
66399;Laerm;54877;51.504;3.894;2024-01-30T10:08:59;42.43;36.62;65.89;;
66399;Laerm;54877;51.504;3.894;2024-01-30T10:11:25;42.21;36.62;68.33;;
66399;Laerm;54877;51.504;3.894;2024-01-30T10:13:50;47.89;35.92;72.00;;
66399;Laerm;54877;51.504;3.894;2024-01-30T10:16:15;52.20;38.43;68.83;;
66399;Laerm;54877;51.504;3.894;2024-01-30T10:18:42;54.57;38.25;72.99;;
66399;Laerm;54877;51.504;3.894;2024-01-30T10:21:08;39.67;36.73;51.21;;
66399;Laerm;54877;51.504;3.894;2024-01-30T10:23:34;45.43;36.55;63.64;;
66399;Laerm;54877;51.504;3.894;2024-01-30T10:25:59;40.71;36.13;56.07;;
66399;Laerm;54877;51.504;3.894;2024-01-30T10:28:27;48.27;35.90;66.61;;
66399;Laerm;54877;51.504;3.894;2024-01-30T10:31:01;59.19;36.64;75.22;;
66399;Laerm;54877;51.504;3.894;2024-01-30T10:33:29;45.83;36.05;63.61;;
66399;Laerm;54877;51.504;3.894;2024-01-30T10:36:00;43.28;36.08;63.77;;
66399;Laerm;54877;51.504;3.894;2024-01-30T10:38:28;43.05;36.42;63.20;;
66399;Laerm;54877;51.504;3.894;2024-01-30T10:40:57;44.79;36.21;62.44;;
66399;Laerm;54877;51.504;3.894;2024-01-30T10:43:24;40.85;36.55;58.75;;
66399;Laerm;54877;51.504;3.894;2024-01-30T10:45:57;40.80;36.03;60.82;;
66399;Laerm;54877;51.504;3.894;2024-01-30T10:48:29;47.07;36.13;64.75;;
66399;Laerm;54877;51.504;3.894;2024-01-30T10:50:55;41.46;36.43;58.41;;
66399;Laerm;54877;51.504;3.894;2024-01-30T10:53:23;48.97;37.11;66.53;;
66399;Laerm;54877;51.504;3.894;2024-01-30T10:55:51;47.99;37.07;64.93;;
66399;Laerm;54877;51.504;3.894;2024-01-30T10:58:17;47.28;36.34;64.61;;
66399;Laerm;54877;51.504;3.894;2024-01-30T11:00:44;40.83;36.09;63.92;;
66399;Laerm;54877;51.504;3.894;2024-01-30T11:03:10;40.87;36.19;55.37;;
66399;Laerm;54877;51.504;3.894;2024-01-30T11:05:36;38.28;35.64;47.52;;
66399;Laerm;54877;51.504;3.894;2024-01-30T11:08:14;46.91;35.77;66.43;;
66399;Laerm;54877;51.504;3.894;2024-01-30T11:10:49;39.32;36.19;59.69;;
66399;Laerm;54877;51.504;3.894;2024-01-30T11:13:15;56.43;36.72;77.74;;
66399;Laerm;54877;51.504;3.894;2024-01-30T11:15:41;42.51;37.14;58.56;;
66399;Laerm;54877;51.504;3.894;2024-01-30T11:18:06;46.55;36.26;70.19;;
66399;Laerm;54877;51.504;3.894;2024-01-30T11:20:32;41.39;36.40;57.25;;
66399;Laerm;54877;51.504;3.894;2024-01-30T11:22:58;40.91;36.30;66.29;;
66399;Laerm;54877;51.504;3.894;2024-01-30T11:25:24;38.39;35.73;49.74;;
66399;Laerm;54877;51.504;3.894;2024-01-30T11:27:52;49.10;36.59;68.20;;
66399;Laerm;54877;51.504;3.894;2024-01-30T11:30:25;44.39;36.35;64.77;;
66399;Laerm;54877;51.504;3.894;2024-01-30T11:33:10;40.41;36.27;57.04;;
66399;Laerm;54877;51.504;3.894;2024-01-30T11:35:41;43.06;36.05;57.78;;
66399;Laerm;54877;51.504;3.894;2024-01-30T11:38:14;39.28;35.88;52.12;;
66399;Laerm;54877;51.504;3.894;2024-01-30T11:40:40;38.18;35.77;46.21;;
66399;Laerm;54877;51.504;3.894;2024-01-30T11:43:07;43.04;36.06;60.27;;
66399;Laerm;54877;51.504;3.894;2024-01-30T11:45:33;49.62;36.79;66.49;;
66399;Laerm;54877;51.504;3.894;2024-01-30T11:47:59;51.31;37.14;66.98;;
66399;Laerm;54877;51.504;3.894;2024-01-30T11:50:33;42.53;36.98;61.26;;
66399;Laerm;54877;51.504;3.894;2024-01-30T11:53:02;46.70;37.01;62.76;;
66399;Laerm;54877;51.504;3.894;2024-01-30T11:55:29;39.57;36.60;57.11;;
66399;Laerm;54877;51.504;3.894;2024-01-30T11:57:56;38.89;35.58;57.39;;
66399;Laerm;54877;51.504;3.894;2024-01-30T12:00:22;50.07;35.91;68.85;;
66399;Laerm;54877;51.504;3.894;2024-01-30T12:02:52;48.44;37.90;66.23;;
66399;Laerm;54877;51.504;3.894;2024-01-30T12:05:21;48.76;36.73;67.71;;
66399;Laerm;54877;51.504;3.894;2024-01-30T12:07:47;48.06;37.35;67.57;;
66399;Laerm;54877;51.504;3.894;2024-01-30T12:10:13;45.59;36.25;63.40;;
66399;Laerm;54877;51.504;3.894;2024-01-30T12:12:45;47.59;36.89;65.86;;
66399;Laerm;54877;51.504;3.894;2024-01-30T12:15:11;41.26;36.87;54.17;;
66399;Laerm;54877;51.504;3.894;2024-01-30T12:17:36;51.28;36.30;71.47;;
66399;Laerm;54877;51.504;3.894;2024-01-30T12:20:10;40.91;36.12;55.45;;
66399;Laerm;54877;51.504;3.894;2024-01-30T12:22:41;46.78;36.39;65.17;;
66399;Laerm;54877;51.504;3.894;2024-01-30T12:25:15;49.31;35.99;68.51;;
66399;Laerm;54877;51.504;3.894;2024-01-30T12:27:46;40.62;36.68;54.01;;
66399;Laerm;54877;51.504;3.894;2024-01-30T12:30:15;46.71;36.37;63.54;;
66399;Laerm;54877;51.504;3.894;2024-01-30T12:32:42;49.26;35.96;69.85;;
66399;Laerm;54877;51.504;3.894;2024-01-30T12:35:17;48.91;36.81;67.62;;
66399;Laerm;54877;51.504;3.894;2024-01-30T12:37:46;39.12;35.71;50.31;;
66399;Laerm;54877;51.504;3.894;2024-01-30T12:40:14;47.86;36.13;64.81;;
66399;Laerm;54877;51.504;3.894;2024-01-30T12:42:40;45.32;36.46;66.14;;
66399;Laerm;54877;51.504;3.894;2024-01-30T12:45:08;42.46;35.99;61.31;;
66399;Laerm;54877;51.504;3.894;2024-01-30T12:47:33;49.14;35.94;67.24;;
66399;Laerm;54877;51.504;3.894;2024-01-30T12:49:58;48.09;36.09;64.05;;
66399;Laerm;54877;51.504;3.894;2024-01-30T12:52:24;50.13;36.23;72.88;;
66399;Laerm;54877;51.504;3.894;2024-01-30T12:54:50;48.89;36.80;65.48;;
66399;Laerm;54877;51.504;3.894;2024-01-30T12:57:16;43.59;36.82;66.96;;
66399;Laerm;54877;51.504;3.894;2024-01-30T12:59:45;41.41;37.06;58.23;;
66399;Laerm;54877;51.504;3.894;2024-01-30T13:02:12;51.77;37.11;68.67;;
66399;Laerm;54877;51.504;3.894;2024-01-30T13:04:38;46.53;36.68;63.41;;
66399;Laerm;54877;51.504;3.894;2024-01-30T13:07:03;49.83;36.68;68.73;;
66399;Laerm;54877;51.504;3.894;2024-01-30T13:09:30;48.48;36.48;66.65;;
66399;Laerm;54877;51.504;3.894;2024-01-30T13:11:56;45.74;37.25;62.31;;
66399;Laerm;54877;51.504;3.894;2024-01-30T13:14:21;46.80;36.62;65.10;;
66399;Laerm;54877;51.504;3.894;2024-01-30T13:16:46;41.96;36.81;57.69;;
66399;Laerm;54877;51.504;3.894;2024-01-30T13:19:12;41.36;36.79;58.98;;
66399;Laerm;54877;51.504;3.894;2024-01-30T13:21:37;47.51;36.53;62.74;;
66399;Laerm;54877;51.504;3.894;2024-01-30T13:24:03;43.30;36.55;58.47;;
66399;Laerm;54877;51.504;3.894;2024-01-30T13:26:29;40.71;36.09;55.16;;
66399;Laerm;54877;51.504;3.894;2024-01-30T13:28:56;40.43;36.55;56.90;;
66399;Laerm;54877;51.504;3.894;2024-01-30T13:31:21;40.31;36.61;57.51;;
66399;Laerm;54877;51.504;3.894;2024-01-30T13:33:47;38.85;35.79;57.52;;
66399;Laerm;54877;51.504;3.894;2024-01-30T13:36:14;39.18;35.79;51.87;;
66399;Laerm;54877;51.504;3.894;2024-01-30T13:38:39;49.96;35.94;67.79;;
66399;Laerm;54877;51.504;3.894;2024-01-30T13:41:04;39.64;35.77;57.32;;